sensor_id;sensor_type;location;lat;lon;timestamp;pressure;altitude;pressure_sealevel;temperature;humidity
52745;BME280;38637;49.984;20.426;2023-08-07T00:01:16;98040.41;;;15.04;100.00
52745;BME280;38637;49.984;20.426;2023-08-07T00:03:42;98037.16;;;15.02;100.00
52745;BME280;38637;49.984;20.426;2023-08-07T00:06:07;98031.84;;;14.97;100.00
52745;BME280;38637;49.984;20.426;2023-08-07T00:08:32;98034.75;;;14.92;100.00
52745;BME280;38637;49.984;20.426;2023-08-07T00:11:08;98033.94;;;14.91;100.00
52745;BME280;38637;49.984;20.426;2023-08-07T00:13:34;98036.19;;;14.89;100.00
52745;BME280;38637;49.984;20.426;2023-08-07T00:15:59;98039.28;;;14.88;100.00
52745;BME280;38637;49.984;20.426;2023-08-07T00:18:25;98040.25;;;14.83;100.00
52745;BME280;38637;49.984;20.426;2023-08-07T00:20:50;98034.75;;;14.83;100.00
52745;BME280;38637;49.984;20.426;2023-08-07T00:23:15;98039.09;;;14.84;100.00
52745;BME280;38637;49.984;20.426;2023-08-07T00:25:41;98033.94;;;14.83;100.00
52745;BME280;38637;49.984;20.426;2023-08-07T00:28:06;98031.50;;;14.81;100.00
52745;BME280;38637;49.984;20.426;2023-08-07T00:30:31;98040.25;;;14.83;100.00
52745;BME280;38637;49.984;20.426;2023-08-07T00:32:56;98037.81;;;14.82;100.00
52745;BME280;38637;49.984;20.426;2023-08-07T00:35:22;98038.28;;;14.84;100.00
52745;BME280;38637;49.984;20.426;2023-08-07T00:37:47;98045.44;;;14.85;100.00
52745;BME280;38637;49.984;20.426;2023-08-07T00:40:12;98037.19;;;14.85;100.00
52745;BME280;38637;49.984;20.426;2023-08-07T00:42:38;98033.59;;;14.84;100.00
52745;BME280;38637;49.984;20.426;2023-08-07T00:45:04;98029.25;;;14.83;100.00
52745;BME280;38637;49.984;20.426;2023-08-07T00:47:30;98038.00;;;14.85;100.00
52745;BME280;38637;49.984;20.426;2023-08-07T00:49:56;98036.03;;;14.86;100.00
52745;BME280;38637;49.984;20.426;2023-08-07T00:52:23;98036.84;;;14.86;100.00
52745;BME280;38637;49.984;20.426;2023-08-07T00:54:48;98032.50;;;14.85;100.00
52745;BME280;38637;49.984;20.426;2023-08-07T00:57:14;98042.34;;;14.86;100.00
52745;BME280;38637;49.984;20.426;2023-08-07T00:59:40;98035.25;;;14.85;100.00
52745;BME280;38637;49.984;20.426;2023-08-07T01:02:07;98034.09;;;14.86;100.00
52745;BME280;38637;49.984;20.426;2023-08-07T01:04:32;98032.00;;;14.83;100.00
52745;BME280;38637;49.984;20.426;2023-08-07T01:06:57;98032.00;;;14.83;100.00
52745;BME280;38637;49.984;20.426;2023-08-07T01:09:23;98031.84;;;14.80;100.00
52745;BME280;38637;49.984;20.426;2023-08-07T01:14:41;98009.34;;;14.60;100.00
52745;BME280;38637;49.984;20.426;2023-08-07T01:17:15;98028.13;;;14.76;100.00
52745;BME280;38637;49.984;20.426;2023-08-07T01:19:41;98021.97;;;14.70;100.00
52745;BME280;38637;49.984;20.426;2023-08-07T01:22:11;98030.88;;;14.76;100.00
52745;BME280;38637;49.984;20.426;2023-08-07T01:24:38;98025.84;;;14.78;100.00
52745;BME280;38637;49.984;20.426;2023-08-07T01:32:29;98040.56;;;14.82;100.00
52745;BME280;38637;49.984;20.426;2023-08-07T01:34:58;98042.19;;;14.83;100.00
52745;BME280;38637;49.984;20.426;2023-08-07T01:37:27;98037.19;;;14.85;100.00
52745;BME280;38637;49.984;20.426;2023-08-07T01:39:55;98043.00;;;14.83;100.00
52745;BME280;38637;49.984;20.426;2023-08-07T01:42:22;98043.94;;;14.87;100.00
52745;BME280;38637;49.984;20.426;2023-08-07T01:44:48;98052.84;;;14.93;100.00
52745;BME280;38637;49.984;20.426;2023-08-07T01:47:13;98050.25;;;14.97;100.00
52745;BME280;38637;49.984;20.426;2023-08-07T01:49:38;98050.13;;;15.02;100.00
52745;BME280;38637;49.984;20.426;2023-08-07T01:52:06;98057.22;;;15.03;100.00
52745;BME280;38637;49.984;20.426;2023-08-07T01:54:32;98052.84;;;15.02;100.00
52745;BME280;38637;49.984;20.426;2023-08-07T01:56:57;98049.31;;;15.01;100.00
52745;BME280;38637;49.984;20.426;2023-08-07T01:59:22;98052.06;;;15.01;100.00
52745;BME280;38637;49.984;20.426;2023-08-07T02:01:48;98054.66;;;14.98;100.00
52745;BME280;38637;49.984;20.426;2023-08-07T02:04:13;98051.09;;;14.97;100.00
52745;BME280;38637;49.984;20.426;2023-08-07T02:06:38;98058.84;;;14.95;100.00
52745;BME280;38637;49.984;20.426;2023-08-07T02:09:03;98043.97;;;14.96;100.00
52745;BME280;38637;49.984;20.426;2023-08-07T02:11:29;98033.75;;;14.97;100.00
52745;BME280;38637;49.984;20.426;2023-08-07T02:13:55;98031.50;;;14.99;100.00
52745;BME280;38637;49.984;20.426;2023-08-07T02:16:20;98027.31;;;15.01;100.00
52745;BME280;38637;49.984;20.426;2023-08-07T02:18:46;98016.47;;;14.96;100.00
52745;BME280;38637;49.984;20.426;2023-08-07T02:21:11;98037.34;;;14.97;100.00
52745;BME280;38637;49.984;20.426;2023-08-07T02:23:36;98039.09;;;14.93;100.00
52745;BME280;38637;49.984;20.426;2023-08-07T02:26:01;98042.50;;;14.90;100.00
52745;BME280;38637;49.984;20.426;2023-08-07T02:28:27;98042.19;;;14.91;100.00
52745;BME280;38637;49.984;20.426;2023-08-07T02:30:52;98049.00;;;14.94;100.00
52745;BME280;38637;49.984;20.426;2023-08-07T02:33:19;98049.47;;;14.96;100.00
52745;BME280;38637;49.984;20.426;2023-08-07T02:35:45;98050.75;;;14.99;100.00
52745;BME280;38637;49.984;20.426;2023-08-07T02:38:10;98051.56;;;14.99;100.00
52745;BME280;38637;49.984;20.426;2023-08-07T02:40:36;98054.00;;;15.01;100.00
52745;BME280;38637;49.984;20.426;2023-08-07T02:43:01;98055.59;;;15.02;100.00
52745;BME280;38637;49.984;20.426;2023-08-07T02:45:26;98047.06;;;15.03;100.00
52745;BME280;38637;49.984;20.426;2023-08-07T02:47:52;98050.91;;;15.02;100.00
52745;BME280;38637;49.984;20.426;2023-08-07T02:50:17;98044.63;;;15.02;100.00
52745;BME280;38637;49.984;20.426;2023-08-07T02:52:42;98058.19;;;14.98;100.00
52745;BME280;38637;49.984;20.426;2023-08-07T02:55:08;98052.69;;;14.98;100.00
52745;BME280;38637;49.984;20.426;2023-08-07T02:57:33;98059.34;;;14.97;100.00
52745;BME280;38637;49.984;20.426;2023-08-07T02:59:58;98062.09;;;14.97;100.00
52745;BME280;38637;49.984;20.426;2023-08-07T03:02:23;98057.06;;;14.99;100.00
52745;BME280;38637;49.984;20.426;2023-08-07T03:04:49;98062.72;;;15.03;100.00
52745;BME280;38637;49.984;20.426;2023-08-07T03:07:14;98061.25;;;15.05;100.00
52745;BME280;38637;49.984;20.426;2023-08-07T03:09:39;98062.56;;;15.08;100.00
52745;BME280;38637;49.984;20.426;2023-08-07T03:12:05;98065.66;;;15.06;100.00
52745;BME280;38637;49.984;20.426;2023-08-07T03:14:30;98078.75;;;15.09;100.00
52745;BME280;38637;49.984;20.426;2023-08-07T03:16:56;98074.06;;;15.10;100.00
52745;BME280;38637;49.984;20.426;2023-08-07T03:19:21;98066.13;;;15.08;100.00
52745;BME280;38637;49.984;20.426;2023-08-07T03:21:47;98072.41;;;15.09;100.00
52745;BME280;38637;49.984;20.426;2023-08-07T03:24:12;98066.13;;;15.08;100.00
52745;BME280;38637;49.984;20.426;2023-08-07T03:26:37;98072.75;;;15.07;100.00
52745;BME280;38637;49.984;20.426;2023-08-07T03:29:03;98076.78;;;15.01;100.00
52745;BME280;38637;49.984;20.426;2023-08-07T03:31:28;98075.19;;;15.00;100.00
52745;BME280;38637;49.984;20.426;2023-08-07T03:33:53;98073.56;;;14.99;100.00
52745;BME280;38637;49.984;20.426;2023-08-07T03:36:19;98084.56;;;14.99;100.00
52745;BME280;38637;49.984;20.426;2023-08-07T03:38:44;98078.41;;;15.02;100.00
52745;BME280;38637;49.984;20.426;2023-08-07T03:41:09;98076.00;;;15.01;100.00
52745;BME280;38637;49.984;20.426;2023-08-07T03:43:35;98092.66;;;15.04;100.00
52745;BME280;38637;49.984;20.426;2023-08-07T03:46:00;98085.53;;;15.03;100.00
52745;BME280;38637;49.984;20.426;2023-08-07T03:48:26;98095.91;;;15.06;100.00
52745;BME280;38637;49.984;20.426;2023-08-07T03:50:51;98082.63;;;15.08;100.00
52745;BME280;38637;49.984;20.426;2023-08-07T03:53:16;98092.97;;;15.11;100.00
52745;BME280;38637;49.984;20.426;2023-08-07T03:55:42;98098.31;;;15.16;100.00
52745;BME280;38637;49.984;20.426;2023-08-07T03:58:08;98108.16;;;15.17;100.00
52745;BME280;38637;49.984;20.426;2023-08-07T04:00:33;98098.31;;;15.16;100.00
52745;BME280;38637;49.984;20.426;2023-08-07T04:02:58;98113.53;;;15.23;100.00
52745;BME280;38637;49.984;20.426;2023-08-07T04:05:24;98103.66;;;15.22;100.00
52745;BME280;38637;49.984;20.426;2023-08-07T04:07:49;98111.09;;;15.30;100.00
52745;BME280;38637;49.984;20.426;2023-08-07T04:10:15;98108.84;;;15.32;100.00
52745;BME280;38637;49.984;20.426;2023-08-07T04:12:40;98114.66;;;15.39;100.00
52745;BME280;38637;49.984;20.426;2023-08-07T04:15:06;98120.00;;;15.44;100.00
52745;BME280;38637;49.984;20.426;2023-08-07T04:17:32;98123.84;;;15.52;100.00
52745;BME280;38637;49.984;20.426;2023-08-07T04:19:57;98120.47;;;15.55;100.00
52745;BME280;38637;49.984;20.426;2023-08-07T04:22:22;98116.75;;;15.59;100.00
52745;BME280;38637;49.984;20.426;2023-08-07T04:24:48;98113.84;;;15.65;100.00
52745;BME280;38637;49.984;20.426;2023-08-07T04:27:13;98118.88;;;15.71;100.00
52745;BME280;38637;49.984;20.426;2023-08-07T04:29:38;98113.34;;;15.80;100.00
52745;BME280;38637;49.984;20.426;2023-08-07T04:32:04;98118.22;;;15.83;100.00
52745;BME280;38637;49.984;20.426;2023-08-07T04:34:30;98123.88;;;15.87;100.00
52745;BME280;38637;49.984;20.426;2023-08-07T04:36:55;98119.66;;;15.89;100.00
52745;BME280;38637;49.984;20.426;2023-08-07T04:39:21;98119.16;;;15.87;100.00
52745;BME280;38637;49.984;20.426;2023-08-07T04:41:47;98118.66;;;15.94;100.00
52745;BME280;38637;49.984;20.426;2023-08-07T04:44:15;98114.59;;;16.00;100.00
52745;BME280;38637;49.984;20.426;2023-08-07T04:46:40;98129.16;;;16.00;100.00
52745;BME280;38637;49.984;20.426;2023-08-07T04:49:06;98124.16;;;16.02;100.00
52745;BME280;38637;49.984;20.426;2023-08-07T04:51:31;98126.25;;;16.05;100.00
52745;BME280;38637;49.984;20.426;2023-08-07T04:53:56;98116.66;;;16.12;100.00
52745;BME280;38637;49.984;20.426;2023-08-07T04:56:22;98113.75;;;16.17;100.00
52745;BME280;38637;49.984;20.426;2023-08-07T04:58:47;98117.13;;;16.22;100.00
52745;BME280;38637;49.984;20.426;2023-08-07T05:01:13;98112.72;;;16.30;100.00
52745;BME280;38637;49.984;20.426;2023-08-07T05:03:38;98114.81;;;16.33;100.00
52745;BME280;38637;49.984;20.426;2023-08-07T05:06:03;98108.31;;;16.38;100.00
52745;BME280;38637;49.984;20.426;2023-08-07T05:08:28;98116.25;;;16.39;100.00
52745;BME280;38637;49.984;20.426;2023-08-07T05:10:54;98117.66;;;16.45;100.00
52745;BME280;38637;49.984;20.426;2023-08-07T05:13:19;98116.25;;;16.39;100.00
52745;BME280;38637;49.984;20.426;2023-08-07T05:15:47;98125.78;;;16.42;100.00
52745;BME280;38637;49.984;20.426;2023-08-07T05:18:12;98109.41;;;16.45;100.00
52745;BME280;38637;49.984;20.426;2023-08-07T05:20:37;98117.50;;;16.50;100.00
52745;BME280;38637;49.984;20.426;2023-08-07T05:23:03;98121.53;;;16.53;100.00
52745;BME280;38637;49.984;20.426;2023-08-07T05:25:28;98126.72;;;16.54;100.00
52745;BME280;38637;49.984;20.426;2023-08-07T05:27:53;98121.34;;;16.58;100.00
52745;BME280;38637;49.984;20.426;2023-08-07T05:30:19;98128.63;;;16.63;100.00
52745;BME280;38637;49.984;20.426;2023-08-07T05:32:44;98119.19;;;16.64;100.00
52745;BME280;38637;49.984;20.426;2023-08-07T05:35:10;98122.81;;;16.55;100.00
52745;BME280;38637;49.984;20.426;2023-08-07T05:37:36;98126.31;;;16.65;100.00
52745;BME280;38637;49.984;20.426;2023-08-07T05:40:02;98133.59;;;16.69;100.00
52745;BME280;38637;49.984;20.426;2023-08-07T05:42:27;98133.13;;;16.67;100.00
52745;BME280;38637;49.984;20.426;2023-08-07T05:44:53;98139.66;;;16.63;100.00
52745;BME280;38637;49.984;20.426;2023-08-07T05:47:18;98137.56;;;16.60;100.00
52745;BME280;38637;49.984;20.426;2023-08-07T05:49:44;98136.94;;;16.54;100.00
52745;BME280;38637;49.984;20.426;2023-08-07T05:52:09;98141.13;;;16.60;100.00
52745;BME280;38637;49.984;20.426;2023-08-07T05:54:34;98137.34;;;16.65;100.00
52745;BME280;38637;49.984;20.426;2023-08-07T05:57:00;98151.13;;;16.65;100.00
52745;BME280;38637;49.984;20.426;2023-08-07T05:59:25;98150.31;;;16.64;100.00
52745;BME280;38637;49.984;20.426;2023-08-07T06:01:51;98158.91;;;16.71;100.00
52745;BME280;38637;49.984;20.426;2023-08-07T06:04:16;98156.78;;;16.77;100.00
52745;BME280;38637;49.984;20.426;2023-08-07T06:06:42;98157.25;;;16.79;100.00
52745;BME280;38637;49.984;20.426;2023-08-07T06:09:08;98167.44;;;16.87;100.00
52745;BME280;38637;49.984;20.426;2023-08-07T06:11:33;98166.63;;;16.87;100.00
52745;BME280;38637;49.984;20.426;2023-08-07T06:13:59;98151.59;;;16.75;100.00
52745;BME280;38637;49.984;20.426;2023-08-07T06:16:24;98169.53;;;16.90;100.00
52745;BME280;38637;49.984;20.426;2023-08-07T06:18:50;98174.84;;;16.95;100.00
52745;BME280;38637;49.984;20.426;2023-08-07T06:21:15;98171.09;;;17.00;100.00
52745;BME280;38637;49.984;20.426;2023-08-07T06:23:41;98187.78;;;17.04;100.00
52745;BME280;38637;49.984;20.426;2023-08-07T06:26:06;98186.81;;;17.08;100.00
52745;BME280;38637;49.984;20.426;2023-08-07T06:28:33;98186.44;;;17.10;100.00
52745;BME280;38637;49.984;20.426;2023-08-07T06:31:02;98184.84;;;17.09;100.00
52745;BME280;38637;49.984;20.426;2023-08-07T06:33:28;98185.03;;;17.04;99.96
52745;BME280;38637;49.984;20.426;2023-08-07T06:35:53;98178.56;;;16.99;98.20
52745;BME280;38637;49.984;20.426;2023-08-07T06:38:18;98182.78;;;16.97;97.66
52745;BME280;38637;49.984;20.426;2023-08-07T06:40:44;98175.81;;;16.99;98.53
52745;BME280;38637;49.984;20.426;2023-08-07T06:43:09;98181.28;;;17.08;99.65
52745;BME280;38637;49.984;20.426;2023-08-07T06:45:35;98184.31;;;17.15;97.71
52745;BME280;38637;49.984;20.426;2023-08-07T06:48:00;98181.38;;;17.20;98.93
52745;BME280;38637;49.984;20.426;2023-08-07T06:50:25;98186.06;;;17.20;97.95
52745;BME280;38637;49.984;20.426;2023-08-07T06:52:50;98185.91;;;17.16;97.13
52745;BME280;38637;49.984;20.426;2023-08-07T06:55:16;98189.81;;;17.15;96.37
52745;BME280;38637;49.984;20.426;2023-08-07T06:57:41;98192.63;;;17.07;96.35
52745;BME280;38637;49.984;20.426;2023-08-07T07:00:07;98187.47;;;17.05;96.68
52745;BME280;38637;49.984;20.426;2023-08-07T07:02:34;98195.16;;;17.20;98.53
52745;BME280;38637;49.984;20.426;2023-08-07T07:05:00;98200.22;;;17.39;97.71
52745;BME280;38637;49.984;20.426;2023-08-07T07:07:25;98202.25;;;17.51;96.52
52745;BME280;38637;49.984;20.426;2023-08-07T07:09:50;98205.41;;;17.62;95.27
52745;BME280;38637;49.984;20.426;2023-08-07T07:12:16;98201.22;;;17.77;95.67
52745;BME280;38637;49.984;20.426;2023-08-07T07:14:41;98205.56;;;17.86;93.91
52745;BME280;38637;49.984;20.426;2023-08-07T07:17:06;98201.31;;;17.89;91.63
52745;BME280;38637;49.984;20.426;2023-08-07T07:19:31;98204.00;;;17.98;92.90
52745;BME280;38637;49.984;20.426;2023-08-07T07:21:59;98214.97;;;18.06;91.58
52745;BME280;38637;49.984;20.426;2023-08-07T07:24:25;98210.03;;;18.12;92.49
52745;BME280;38637;49.984;20.426;2023-08-07T07:26:50;98208.94;;;18.25;91.28
52745;BME280;38637;49.984;20.426;2023-08-07T07:29:16;98206.53;;;18.36;89.09
52745;BME280;38637;49.984;20.426;2023-08-07T07:31:42;98216.03;;;18.47;89.49
52745;BME280;38637;49.984;20.426;2023-08-07T07:34:08;98220.03;;;18.37;88.54
52745;BME280;38637;49.984;20.426;2023-08-07T07:36:33;98215.91;;;18.44;88.40
52745;BME280;38637;49.984;20.426;2023-08-07T07:38:58;98214.75;;;18.45;85.92
52745;BME280;38637;49.984;20.426;2023-08-07T07:41:23;98224.44;;;18.63;87.61
52745;BME280;38637;49.984;20.426;2023-08-07T07:43:49;98214.66;;;18.53;84.60
52745;BME280;38637;49.984;20.426;2023-08-07T07:46:14;98214.41;;;18.46;84.67
52745;BME280;38637;49.984;20.426;2023-08-07T07:48:39;98219.94;;;18.46;84.34
52745;BME280;38637;49.984;20.426;2023-08-07T07:51:05;98207.41;;;18.49;85.71
52745;BME280;38637;49.984;20.426;2023-08-07T07:53:30;98210.84;;;18.46;85.06
52745;BME280;38637;49.984;20.426;2023-08-07T07:55:56;98221.44;;;18.44;85.42
52745;BME280;38637;49.984;20.426;2023-08-07T07:58:22;98215.00;;;18.52;85.19
52745;BME280;38637;49.984;20.426;2023-08-07T08:00:47;98219.09;;;18.79;83.44
52745;BME280;38637;49.984;20.426;2023-08-07T08:03:13;98228.66;;;18.94;83.06
52745;BME280;38637;49.984;20.426;2023-08-07T08:05:38;98215.75;;;18.73;80.84
52745;BME280;38637;49.984;20.426;2023-08-07T08:08:05;98219.78;;;18.88;83.58
52745;BME280;38637;49.984;20.426;2023-08-07T08:10:30;98219.47;;;19.02;81.79
52745;BME280;38637;49.984;20.426;2023-08-07T08:12:56;98228.66;;;19.06;82.07
52745;BME280;38637;49.984;20.426;2023-08-07T08:15:21;98230.06;;;19.24;80.38
52745;BME280;38637;49.984;20.426;2023-08-07T08:17:47;98235.25;;;19.38;82.12
52745;BME280;38637;49.984;20.426;2023-08-07T08:20:14;98233.97;;;19.48;79.96
52745;BME280;38637;49.984;20.426;2023-08-07T08:22:42;98229.66;;;19.63;78.46
52745;BME280;38637;49.984;20.426;2023-08-07T08:25:07;98226.31;;;19.69;80.31
52745;BME280;38637;49.984;20.426;2023-08-07T08:27:34;98215.56;;;19.80;80.73
52745;BME280;38637;49.984;20.426;2023-08-07T08:29:59;98237.31;;;19.54;83.79
52745;BME280;38637;49.984;20.426;2023-08-07T08:32:25;98234.91;;;19.03;82.69
52745;BME280;38637;49.984;20.426;2023-08-07T08:34:50;98235.63;;;18.67;83.50
52745;BME280;38637;49.984;20.426;2023-08-07T08:37:15;98240.19;;;18.38;90.64
52745;BME280;38637;49.984;20.426;2023-08-07T08:39:41;98241.59;;;17.90;93.06
52745;BME280;38637;49.984;20.426;2023-08-07T08:42:09;98252.59;;;17.69;97.21
52745;BME280;38637;49.984;20.426;2023-08-07T08:44:36;98242.53;;;17.73;97.75
52745;BME280;38637;49.984;20.426;2023-08-07T08:47:04;98247.53;;;17.80;96.44
52745;BME280;38637;49.984;20.426;2023-08-07T08:49:35;98251.69;;;18.07;96.74
52745;BME280;38637;49.984;20.426;2023-08-07T08:52:03;98238.78;;;18.32;95.20
52745;BME280;38637;49.984;20.426;2023-08-07T08:54:30;98242.59;;;18.73;95.23
52745;BME280;38637;49.984;20.426;2023-08-07T08:56:56;98238.34;;;19.00;94.01
52745;BME280;38637;49.984;20.426;2023-08-07T08:59:24;98246.75;;;19.40;94.59
52745;BME280;38637;49.984;20.426;2023-08-07T09:01:51;98234.03;;;19.76;91.72
52745;BME280;38637;49.984;20.426;2023-08-07T09:04:18;98240.63;;;19.59;86.52
52745;BME280;38637;49.984;20.426;2023-08-07T09:06:44;98244.00;;;19.40;85.27
52745;BME280;38637;49.984;20.426;2023-08-07T09:09:11;98249.19;;;19.42;84.55
52745;BME280;38637;49.984;20.426;2023-08-07T09:11:38;98258.16;;;19.63;86.59
52745;BME280;38637;49.984;20.426;2023-08-07T09:14:04;98257.94;;;19.56;85.17
52745;BME280;38637;49.984;20.426;2023-08-07T09:16:30;98266.03;;;19.49;81.09
52745;BME280;38637;49.984;20.426;2023-08-07T09:18:56;98261.44;;;19.28;79.98
52745;BME280;38637;49.984;20.426;2023-08-07T09:21:21;98269.06;;;19.32;82.39
52745;BME280;38637;49.984;20.426;2023-08-07T09:23:46;98259.22;;;19.34;82.18
52745;BME280;38637;49.984;20.426;2023-08-07T09:26:12;98263.03;;;19.54;82.23
52745;BME280;38637;49.984;20.426;2023-08-07T09:28:37;98258.50;;;19.62;81.19
52745;BME280;38637;49.984;20.426;2023-08-07T09:31:06;98262.81;;;19.71;80.20
52745;BME280;38637;49.984;20.426;2023-08-07T09:33:33;98261.69;;;20.01;83.15
52745;BME280;38637;49.984;20.426;2023-08-07T09:36:00;98251.44;;;20.17;82.41
52745;BME280;38637;49.984;20.426;2023-08-07T09:38:31;98257.41;;;20.31;81.36
52745;BME280;38637;49.984;20.426;2023-08-07T09:41:00;98248.53;;;20.26;77.64
52745;BME280;38637;49.984;20.426;2023-08-07T09:43:25;98247.47;;;20.30;78.25
52745;BME280;38637;49.984;20.426;2023-08-07T09:45:51;98247.66;;;20.37;79.47
52745;BME280;38637;49.984;20.426;2023-08-07T09:48:22;98251.06;;;20.31;78.15
52745;BME280;38637;49.984;20.426;2023-08-07T09:50:48;98248.38;;;20.06;77.50
52745;BME280;38637;49.984;20.426;2023-08-07T09:53:14;98259.03;;;19.92;77.77
52745;BME280;38637;49.984;20.426;2023-08-07T09:55:39;98268.75;;;19.86;74.40
52745;BME280;38637;49.984;20.426;2023-08-07T09:58:07;98255.03;;;19.77;72.87
52745;BME280;38637;49.984;20.426;2023-08-07T10:00:34;98260.41;;;19.98;73.32
52745;BME280;38637;49.984;20.426;2023-08-07T10:03:01;98252.41;;;20.09;74.86
52745;BME280;38637;49.984;20.426;2023-08-07T10:05:27;98248.66;;;20.17;75.08
52745;BME280;38637;49.984;20.426;2023-08-07T10:07:52;98262.09;;;20.15;73.78
52745;BME280;38637;49.984;20.426;2023-08-07T10:10:19;98264.25;;;20.22;77.38
52745;BME280;38637;49.984;20.426;2023-08-07T10:12:45;98264.09;;;20.02;76.07
52745;BME280;38637;49.984;20.426;2023-08-07T10:15:14;98273.81;;;19.96;76.90
52745;BME280;38637;49.984;20.426;2023-08-07T10:17:39;98273.53;;;19.73;76.44
52745;BME280;38637;49.984;20.426;2023-08-07T10:20:05;98272.25;;;19.58;75.47
52745;BME280;38637;49.984;20.426;2023-08-07T10:22:32;98269.03;;;19.68;77.30
52745;BME280;38637;49.984;20.426;2023-08-07T10:25:01;98268.56;;;19.66;75.01
52745;BME280;38637;49.984;20.426;2023-08-07T10:27:29;98257.50;;;19.66;75.42
52745;BME280;38637;49.984;20.426;2023-08-07T10:29:56;98261.97;;;19.71;77.35
52745;BME280;38637;49.984;20.426;2023-08-07T10:32:25;98263.72;;;19.76;76.10
52745;BME280;38637;49.984;20.426;2023-08-07T10:34:50;98257.44;;;19.91;75.69
52745;BME280;38637;49.984;20.426;2023-08-07T10:37:41;98267.84;;;20.22;74.52
52745;BME280;38637;49.984;20.426;2023-08-07T10:40:09;98258.94;;;20.44;71.95
52745;BME280;38637;49.984;20.426;2023-08-07T10:42:57;98262.31;;;20.66;73.31
52745;BME280;38637;49.984;20.426;2023-08-07T10:45:24;98262.38;;;20.82;70.97
52745;BME280;38637;49.984;20.426;2023-08-07T10:50:57;98264.44;;;20.29;72.51
52745;BME280;38637;49.984;20.426;2023-08-07T10:53:30;98256.59;;;20.31;72.94
52745;BME280;38637;49.984;20.426;2023-08-07T10:55:55;98260.00;;;20.52;75.56
52745;BME280;38637;49.984;20.426;2023-08-07T10:58:25;98262.75;;;20.52;71.18
52745;BME280;38637;49.984;20.426;2023-08-07T11:00:52;98261.06;;;20.35;71.79
52745;BME280;38637;49.984;20.426;2023-08-07T11:03:40;98260.50;;;20.02;70.04
52745;BME280;38637;49.984;20.426;2023-08-07T11:06:05;98259.72;;;20.01;70.48
52745;BME280;38637;49.984;20.426;2023-08-07T11:08:31;98273.75;;;20.20;69.14
52745;BME280;38637;49.984;20.426;2023-08-07T11:10:58;98267.63;;;20.43;69.79
52745;BME280;38637;49.984;20.426;2023-08-07T11:13:29;98270.22;;;20.64;68.55
52745;BME280;38637;49.984;20.426;2023-08-07T11:15:54;98275.22;;;20.58;69.83
52745;BME280;38637;49.984;20.426;2023-08-07T11:18:22;98270.75;;;20.41;69.54
52745;BME280;38637;49.984;20.426;2023-08-07T11:20:48;98271.72;;;20.33;71.88
52745;BME280;38637;49.984;20.426;2023-08-07T11:23:13;98261.25;;;20.27;72.03
52745;BME280;38637;49.984;20.426;2023-08-07T11:25:38;98267.63;;;20.43;72.79
52745;BME280;38637;49.984;20.426;2023-08-07T11:28:04;98264.66;;;20.64;68.42
52745;BME280;38637;49.984;20.426;2023-08-07T11:30:29;98274.25;;;20.67;70.92
52745;BME280;38637;49.984;20.426;2023-08-07T11:32:56;98273.19;;;20.43;71.02
52745;BME280;38637;49.984;20.426;2023-08-07T11:35:23;98275.09;;;20.27;72.67
52745;BME280;38637;49.984;20.426;2023-08-07T11:37:48;98280.00;;;20.17;72.95
52745;BME280;38637;49.984;20.426;2023-08-07T11:40:14;98282.53;;;20.10;71.22
52745;BME280;38637;49.984;20.426;2023-08-07T11:42:40;98288.13;;;20.26;71.56
52745;BME280;38637;49.984;20.426;2023-08-07T11:45:07;98281.31;;;20.36;71.63
52745;BME280;38637;49.984;20.426;2023-08-07T11:47:33;98293.47;;;20.59;71.51
52745;BME280;38637;49.984;20.426;2023-08-07T11:49:58;98281.88;;;21.01;72.45
52745;BME280;38637;49.984;20.426;2023-08-07T11:52:24;98281.16;;;21.20;69.74
52745;BME280;38637;49.984;20.426;2023-08-07T11:54:51;98287.53;;;21.05;69.42
52745;BME280;38637;49.984;20.426;2023-08-07T11:57:19;98293.78;;;20.86;69.97
52745;BME280;38637;49.984;20.426;2023-08-07T11:59:51;98292.50;;;20.39;71.28
52745;BME280;38637;49.984;20.426;2023-08-07T12:02:16;98282.50;;;20.23;73.25
52745;BME280;38637;49.984;20.426;2023-08-07T12:04:46;98303.34;;;20.04;72.71
52745;BME280;38637;49.984;20.426;2023-08-07T12:07:17;98304.72;;;20.10;73.19
52745;BME280;38637;49.984;20.426;2023-08-07T12:09:42;98308.56;;;20.34;73.48
52745;BME280;38637;49.984;20.426;2023-08-07T12:12:08;98305.97;;;20.53;70.08
52745;BME280;38637;49.984;20.426;2023-08-07T12:14:33;98314.88;;;20.47;70.60
52745;BME280;38637;49.984;20.426;2023-08-07T12:17:01;98317.53;;;20.43;69.50
52745;BME280;38637;49.984;20.426;2023-08-07T12:19:38;98314.03;;;20.58;68.61
52745;BME280;38637;49.984;20.426;2023-08-07T12:22:06;98303.72;;;20.87;70.09
52745;BME280;38637;49.984;20.426;2023-08-07T12:24:32;98304.34;;;20.80;70.24
52745;BME280;38637;49.984;20.426;2023-08-07T12:26:57;98317.31;;;20.48;70.36
52745;BME280;38637;49.984;20.426;2023-08-07T12:29:23;98301.66;;;20.28;70.07
52745;BME280;38637;49.984;20.426;2023-08-07T12:31:49;98314.28;;;20.13;70.58
52745;BME280;38637;49.984;20.426;2023-08-07T12:34:15;98322.34;;;19.78;73.42
52745;BME280;38637;49.984;20.426;2023-08-07T12:36:41;98327.41;;;19.88;73.09
52745;BME280;38637;49.984;20.426;2023-08-07T12:39:07;98338.97;;;19.53;74.14
52745;BME280;38637;49.984;20.426;2023-08-07T12:41:32;98330.88;;;19.72;72.97
52745;BME280;38637;49.984;20.426;2023-08-07T12:43:57;98335.25;;;19.61;73.46
52745;BME280;38637;49.984;20.426;2023-08-07T12:46:24;98347.94;;;19.62;74.45
52745;BME280;38637;49.984;20.426;2023-08-07T12:48:49;98345.41;;;19.57;74.92
52745;BME280;38637;49.984;20.426;2023-08-07T12:51:15;98373.19;;;19.48;76.68